Sacramento, California
Traffic Map
Current Weather Conditions
Sacramento, California
Clear
Clear
59°
Feels Like: 59°
Wind Chill: 59° Ceiling: Unl
Heat Index: 59° Visibility: 10mi
Dew Point: 43° Wind: 0mph
Humidity: 55% Direction: ° ()
Pressure: 30in Gusts: 0mph
Raw Report DataKSAC 220253Z AUTO 00000KT 10SM CLR 15/06 A3000 RMK AO2 SLP159 T01500061 53003 TSNO
Traffic Incident Summary
Active as of:
Severity:
Category:
InformationThere was an issue retrieving the traffic information for this location. Please try a different location or try again shortly.
Advertisements
Track Severe Weather on mobile